Time;durP1;ratioP1;P1;durP2;ratioP2;P2;SDS_P1;SDS_P2;PMS_P1;PMS_P2;Temp;Humidity;BMP_temperature;BMP_pressure;BME280_temperature;BME280_humidity;BME280_pressure;Samples;Min_cycle;Max_cycle;Signal;HPM_P1;HPM_P2
2022/01/26 00:07:17;;;;;;;13.63;7.45;;;7.70;99.90;;;;;;5070048;28;20427;-63
2022/01/26 00:09:43;;;;;;;11.25;6.80;;;7.80;99.90;;;;;;5068562;28;20037;-63
2022/01/26 00:12:09;;;;;;;12.98;7.57;;;7.70;99.90;;;;;;5066631;28;20123;-63
2022/01/26 00:14:38;;;;;;;11.60;6.50;;;7.70;99.90;;;;;;5050920;28;20021;-63
2022/01/26 00:17:03;;;;;;;13.70;7.40;;;7.70;99.90;;;;;;5059578;28;20033;-63
2022/01/26 00:19:44;;;;;;;13.23;7.60;;;7.70;99.90;;;;;;5058255;28;20036;-63
2022/01/26 00:22:11;;;;;;;11.88;6.65;;;7.70;99.90;;;;;;5070751;28;20502;-63
2022/01/26 00:29:59;;;;;;;12.68;6.55;;;7.70;99.90;;;;;;5051434;28;20083;-63
2022/01/26 00:41:02;;;;;;;14.77;7.93;;;7.70;99.90;;;;;;5075079;28;20505;-63
2022/01/26 00:43:28;;;;;;;14.30;6.93;;;7.70;99.90;;;;;;5070093;28;20361;-64
2022/01/26 00:45:58;;;;;;;13.60;6.90;;;7.60;99.90;;;;;;5054666;28;20032;-63
2022/01/26 00:48:26;;;;;;;15.30;8.00;;;7.60;99.90;;;;;;5055445;28;20536;-63
2022/01/26 00:50:53;;;;;;;16.60;8.70;;;7.60;99.90;;;;;;5055042;28;20460;-63
2022/01/26 00:53:27;;;;;;;17.20;9.38;;;7.60;99.90;;;;;;5054741;28;20048;-63
2022/01/26 00:55:52;;;;;;;13.07;7.05;;;7.60;99.90;;;;;;5055184;28;20053;-63
2022/01/26 00:58:18;;;;;;;15.60;8.25;;;7.60;99.90;;;;;;5074542;28;20105;-63
2022/01/26 01:00:44;;;;;;;17.27;9.38;;;7.70;99.90;;;;;;5074553;28;20045;-63
2022/01/26 01:03:10;;;;;;;19.98;8.32;;;7.70;99.90;;;;;;5073948;28;20540;-63
2022/01/26 01:05:48;;;;;;;13.85;7.70;;;7.70;99.90;;;;;;5074824;28;20230;-63
2022/01/26 01:08:17;;;;;;;16.88;9.13;;;7.60;99.90;;;;;;5070643;28;20499;-63
2022/01/26 01:10:45;;;;;;;16.10;8.63;;;7.60;99.90;;;;;;5094259;28;20024;-63
2022/01/26 01:13:16;;;;;;;17.42;8.65;;;7.60;99.90;;;;;;5061406;28;20047;-63
2022/01/26 01:15:43;;;;;;;18.65;8.38;;;7.60;99.90;;;;;;5058668;28;20033;-63
2022/01/26 01:18:15;;;;;;;20.33;9.65;;;7.60;99.90;;;;;;5054219;28;20029;-63
2022/01/26 01:21:07;;;;;;;15.52;8.07;;;7.60;99.90;;;;;;5054546;28;20037;-63
2022/01/26 01:29:18;;;;;;;15.10;8.00;;;7.50;99.90;;;;;;5054312;28;20040;-63
2022/01/26 01:32:11;;;;;;;16.27;8.77;;;7.60;99.90;;;;;;5053961;28;20037;-63
2022/01/26 01:34:38;;;;;;;15.55;7.72;;;7.60;99.90;;;;;;5053466;28;20033;-63
2022/01/26 01:37:07;;;;;;;15.73;7.47;;;7.50;99.90;;;;;;5055371;28;20025;-63
2022/01/26 01:39:34;;;;;;;14.88;7.57;;;7.50;99.90;;;;;;5073800;28;20032;-63
2022/01/26 01:42:00;;;;;;;17.92;8.32;;;7.50;99.90;;;;;;5072542;28;20410;-63
2022/01/26 01:44:27;;;;;;;13.38;7.13;;;7.50;99.90;;;;;;5052951;28;20032;-63
2022/01/26 01:46:54;;;;;;;14.25;7.22;;;7.50;99.90;;;;;;5053832;28;20598;-64
2022/01/26 01:49:20;;;;;;;13.70;7.32;;;7.50;99.90;;;;;;5073660;28;20116;-63
2022/01/26 01:51:53;;;;;;;15.40;7.68;;;7.50;99.90;;;;;;5072954;28;20526;-63
2022/01/26 01:54:20;;;;;;;16.15;7.97;;;7.50;99.90;;;;;;5073619;28;20032;-63
2022/01/26 01:56:53;;;;;;;15.25;6.90;;;7.50;99.90;;;;;;5071778;28;20116;-63
2022/01/26 01:59:19;;;;;;;12.05;7.57;;;7.50;99.90;;;;;;5072656;28;20071;-63
2022/01/26 02:01:44;;;;;;;14.85;6.93;;;7.40;99.90;;;;;;5058507;28;20057;-63
2022/01/26 02:04:10;;;;;;;14.13;7.18;;;7.50;99.90;;;;;;5053784;28;20079;-63
2022/01/26 02:06:36;;;;;;;14.20;6.72;;;7.50;99.90;;;;;;5058480;28;20074;-63
2022/01/26 02:09:02;;;;;;;14.20;6.97;;;7.50;99.90;;;;;;5062987;28;20032;-63
2022/01/26 02:11:28;;;;;;;13.85;7.25;;;7.50;99.90;;;;;;5053545;28;20025;-63
2022/01/26 02:14:12;;;;;;;12.68;6.97;;;7.50;99.90;;;;;;5051612;28;20503;-63
2022/01/26 02:16:49;;;;;;;15.32;6.65;;;7.40;99.90;;;;;;5053342;28;20029;-63
2022/01/26 02:50:08;;;;;;;12.27;6.68;;;7.30;99.90;;;;;;5048745;28;20480;-63
2022/01/26 02:55:32;;;;;;;12.85;6.57;;;7.30;99.90;;;;;;5051738;28;20071;-63
2022/01/26 02:58:32;;;;;;;14.80;6.95;;;7.40;99.90;;;;;;5052513;28;20017;-63
2022/01/26 03:01:07;;;;;;;11.57;6.50;;;7.30;99.90;;;;;;5056914;28;20040;-63
2022/01/26 03:03:39;;;;;;;16.33;7.68;;;7.30;99.90;;;;;;5058575;28;20036;-63
2022/01/26 03:06:10;;;;;;;15.10;7.18;;;7.30;99.90;;;;;;5052676;28;20013;-64
2022/01/26 03:08:42;;;;;;;14.98;6.97;;;7.40;99.90;;;;;;5070884;28;20065;-63
2022/01/26 03:11:10;;;;;;;13.10;7.30;;;7.40;99.90;;;;;;5064322;28;20029;-63
2022/01/26 03:13:41;;;;;;;13.23;6.50;;;7.30;99.90;;;;;;5060117;28;20036;-63
2022/01/26 03:16:20;;;;;;;13.07;7.10;;;7.30;99.90;;;;;;5065575;28;20091;-63
2022/01/26 03:21:27;;;;;;;11.50;6.57;;;7.30;99.90;;;;;;5056732;28;20098;-64
2022/01/26 03:29:42;;;;;;;14.25;7.30;;;7.30;99.90;;;;;;5072063;28;20039;-63
2022/01/26 03:34:53;;;;;;;14.68;8.27;;;7.20;99.90;;;;;;5069844;28;20029;-63
2022/01/26 03:37:22;;;;;;;16.45;7.53;;;7.20;99.90;;;;;;5071728;28;20584;-64
2022/01/26 03:39:47;;;;;;;13.32;7.03;;;7.20;99.90;;;;;;5069637;28;20390;-63
2022/01/26 03:42:16;;;;;;;15.18;7.78;;;7.20;99.90;;;;;;5070862;28;20020;-63
2022/01/26 03:44:42;;;;;;;15.75;8.00;;;7.20;99.90;;;;;;5056677;28;20071;-63
2022/01/26 03:47:09;;;;;;;18.13;8.55;;;7.20;99.90;;;;;;5051671;28;20028;-64
2022/01/26 03:49:35;;;;;;;17.48;9.75;;;7.20;99.90;;;;;;5051643;28;20029;-63
2022/01/26 03:52:02;;;;;;;18.25;8.52;;;7.20;99.90;;;;;;5053914;28;20078;-64
2022/01/26 03:54:27;;;;;;;18.98;9.15;;;7.20;99.90;;;;;;5071410;28;20503;-64
2022/01/26 03:56:53;;;;;;;16.20;8.70;;;7.20;99.90;;;;;;5062671;28;20071;-64
2022/01/26 03:59:18;;;;;;;18.13;8.93;;;7.20;99.90;;;;;;5051862;28;20028;-63
2022/01/26 04:01:44;;;;;;;22.45;9.93;;;7.20;99.90;;;;;;5051320;28;20480;-63
2022/01/26 04:04:09;;;;;;;19.90;10.18;;;7.20;99.90;;;;;;5051317;28;20074;-64
2022/01/26 04:06:35;;;;;;;12.85;7.70;;;7.20;99.90;;;;;;5033269;28;20021;-64
2022/01/26 04:09:04;;;;;;;20.90;9.27;;;7.20;99.90;;;;;;5050647;28;20036;-63
2022/01/26 04:11:39;;;;;;;20.58;10.45;;;7.30;99.90;;;;;;5051345;28;20017;-63
2022/01/26 04:14:08;;;;;;;19.05;9.07;;;7.20;99.90;;;;;;5052488;28;20039;-64
2022/01/26 04:16:35;;;;;;;18.15;9.30;;;7.30;99.90;;;;;;5071480;28;20426;-63
2022/01/26 04:19:00;;;;;;;14.75;7.57;;;7.20;99.90;;;;;;5064232;28;20021;-63
2022/01/26 04:24:00;;;;;;;17.02;7.93;;;7.30;99.90;;;;;;5051027;28;20024;-63
2022/01/26 04:26:33;;;;;;;15.90;8.13;;;7.20;99.90;;;;;;5051228;28;20037;-63
2022/01/26 04:29:04;;;;;;;19.70;8.50;;;7.20;99.90;;;;;;5051336;28;20087;-63
2022/01/26 04:31:30;;;;;;;17.95;8.98;;;7.30;99.90;;;;;;5051618;28;20032;-63
2022/01/26 04:33:55;;;;;;;18.33;8.00;;;7.20;99.90;;;;;;5050906;28;20045;-63
2022/01/26 04:36:28;;;;;;;21.08;9.60;;;7.20;99.90;;;;;;5051123;28;20025;-63
2022/01/26 04:38:57;;;;;;;21.00;9.70;;;7.20;99.90;;;;;;5050933;28;20037;-63
2022/01/26 04:42:00;;;;;;;18.90;9.02;;;7.20;99.90;;;;;;5051263;28;20025;-63
2022/01/26 04:44:21;;;;;;;19.23;9.85;;;7.20;99.90;;;;;;5048868;28;20045;-63
2022/01/26 04:46:48;;;;;;;20.17;9.60;;;7.20;99.90;;;;;;5032874;28;20017;-63
2022/01/26 04:49:13;;;;;;;21.20;9.25;;;7.20;99.90;;;;;;5051549;28;20025;-63
2022/01/26 04:51:39;;;;;;;20.23;9.50;;;7.20;99.90;;;;;;5050880;28;20055;-63
2022/01/26 04:54:04;;;;;;;19.27;9.60;;;7.20;99.90;;;;;;5070484;28;20479;-63
2022/01/26 04:56:30;;;;;;;17.90;8.45;;;7.20;99.90;;;;;;5058010;28;20025;-63
2022/01/26 04:58:55;;;;;;;16.65;9.35;;;7.20;99.90;;;;;;5050740;28;20021;-63
2022/01/26 05:01:21;;;;;;;19.55;9.43;;;7.20;99.90;;;;;;5050819;28;20037;-63
2022/01/26 05:03:46;;;;;;;20.08;8.93;;;7.20;99.90;;;;;;5050691;28;20094;-63
2022/01/26 05:06:12;;;;;;;18.02;8.93;;;7.20;99.90;;;;;;5050744;28;20021;-63
2022/01/26 05:08:37;;;;;;;16.88;8.38;;;7.20;99.90;;;;;;5070035;28;20029;-63
2022/01/26 05:11:04;;;;;;;15.98;8.18;;;7.20;99.90;;;;;;5070468;28;20021;-63
2022/01/26 05:13:30;;;;;;;21.60;8.88;;;7.20;99.90;;;;;;5050440;28;20116;-63
2022/01/26 05:15:55;;;;;;;15.00;7.97;;;7.20;99.90;;;;;;5050819;28;20514;-64
2022/01/26 05:18:23;;;;;;;16.35;8.02;;;7.20;99.90;;;;;;5069886;28;20064;-63
2022/01/26 05:20:49;;;;;;;15.40;7.75;;;7.10;99.80;;;;;;5073865;28;20024;-63
2022/01/26 05:23:14;;;;;;;16.27;7.20;;;7.10;99.70;;;;;;5070379;28;20033;-64
2022/01/26 05:25:40;;;;;;;14.55;7.00;;;7.10;99.70;;;;;;5068457;28;20110;-63
2022/01/26 05:28:06;;;;;;;16.65;6.80;;;7.00;99.70;;;;;;5062571;28;20054;-64
2022/01/26 05:30:31;;;;;;;15.20;6.95;;;7.10;99.70;;;;;;5054029;28;20132;-63
2022/01/26 05:32:57;;;;;;;14.52;7.35;;;7.00;99.60;;;;;;5053711;28;20040;-64
2022/01/26 05:35:22;;;;;;;15.60;7.30;;;6.90;99.60;;;;;;5058067;28;20048;-63
2022/01/26 05:37:48;;;;;;;14.20;6.90;;;7.00;99.70;;;;;;5073844;28;20016;-63
2022/01/26 05:40:14;;;;;;;11.48;5.95;;;6.90;99.60;;;;;;5062639;28;20040;-63
2022/01/26 05:42:41;;;;;;;11.88;5.88;;;6.90;99.60;;;;;;5054046;28;20428;-63
2022/01/26 05:45:17;;;;;;;11.73;5.90;;;6.80;99.60;;;;;;5055316;28;20041;-63
2022/01/26 05:47:43;;;;;;;12.63;6.32;;;6.80;99.70;;;;;;5053924;28;20052;-63
2022/01/26 05:50:08;;;;;;;15.05;5.82;;;6.80;99.70;;;;;;5061620;28;20020;-63
2022/01/26 05:52:34;;;;;;;12.65;6.18;;;6.80;99.70;;;;;;5073714;28;20491;-63
2022/01/26 05:54:59;;;;;;;11.85;5.47;;;6.70;99.60;;;;;;5071358;28;20432;-63
2022/01/26 05:57:25;;;;;;;10.50;5.50;;;6.70;99.60;;;;;;5066069;28;20021;-63
2022/01/26 05:59:53;;;;;;;14.65;6.97;;;6.70;99.70;;;;;;5061556;28;20029;-64
2022/01/26 06:02:18;;;;;;;12.15;6.82;;;6.70;99.70;;;;;;5071558;28;20106;-64
2022/01/26 06:04:44;;;;;;;12.00;6.40;;;6.70;99.70;;;;;;5073554;28;20028;-62
2022/01/26 06:07:09;;;;;;;14.80;6.70;;;6.70;99.70;;;;;;5089584;28;20020;-63
2022/01/26 06:09:35;;;;;;;17.38;8.55;;;6.70;99.70;;;;;;5073602;28;20051;-63
2022/01/26 06:12:00;;;;;;;13.93;7.25;;;6.70;99.70;;;;;;5066880;28;20029;-64
2022/01/26 06:14:26;;;;;;;15.90;7.47;;;6.70;99.70;;;;;;5077169;28;20036;-64
2022/01/26 06:16:51;;;;;;;13.98;7.00;;;6.70;99.60;;;;;;5074220;28;20111;-64
2022/01/26 06:19:17;;;;;;;14.60;7.22;;;6.70;99.60;;;;;;5054960;28;20033;-64
2022/01/26 06:21:42;;;;;;;14.70;7.00;;;6.60;99.60;;;;;;5053086;28;20032;-64
2022/01/26 06:24:08;;;;;;;15.13;7.25;;;6.60;99.70;;;;;;5069163;28;20036;-64
2022/01/26 06:26:33;;;;;;;17.33;9.13;;;6.60;99.60;;;;;;5064578;28;20103;-64
2022/01/26 06:28:59;;;;;;;18.35;7.82;;;6.60;99.60;;;;;;5062386;28;20028;-64
2022/01/26 06:31:27;;;;;;;19.73;8.05;;;6.60;99.70;;;;;;5061801;28;20034;-64
2022/01/26 06:33:53;;;;;;;19.42;8.43;;;6.60;99.70;;;;;;5049359;28;20047;-65
2022/01/26 06:36:19;;;;;;;17.02;8.32;;;6.60;99.70;;;;;;5056586;28;20455;-64
2022/01/26 06:38:46;;;;;;;16.92;8.07;;;6.60;99.70;;;;;;5052567;28;20028;-64
2022/01/26 06:41:13;;;;;;;17.92;7.70;;;6.60;99.70;;;;;;5052833;28;20017;-63
2022/01/26 06:43:48;;;;;;;17.20;8.15;;;6.60;99.80;;;;;;5052465;28;20033;-63
2022/01/26 06:46:21;;;;;;;20.42;9.20;;;6.60;99.80;;;;;;5065810;28;20024;-63
2022/01/26 06:49:02;;;;;;;20.42;10.02;;;6.60;99.70;;;;;;5064001;28;20028;-64
2022/01/26 06:51:28;;;;;;;17.00;8.60;;;6.70;99.70;;;;;;5060388;28;20529;-63
2022/01/26 06:53:56;;;;;;;20.13;9.15;;;6.70;99.70;;;;;;5072215;28;20048;-63
2022/01/26 06:56:21;;;;;;;22.33;9.68;;;6.60;99.60;;;;;;5054513;28;20020;-63
2022/01/26 06:58:50;;;;;;;23.98;10.82;;;6.60;99.60;;;;;;5072283;28;20083;-63
2022/01/26 07:01:15;;;;;;;20.02;9.18;;;6.60;99.60;;;;;;5072034;28;20127;-64
2022/01/26 07:03:41;;;;;;;20.90;10.02;;;6.60;99.60;;;;;;5053744;28;20028;-63
2022/01/26 07:06:06;;;;;;;20.40;9.27;;;6.60;99.50;;;;;;5071306;28;20020;-63
2022/01/26 07:08:32;;;;;;;23.33;9.98;;;6.60;99.50;;;;;;5071128;28;20515;-63
2022/01/26 07:10:59;;;;;;;23.98;10.60;;;6.70;99.50;;;;;;5071268;28;20017;-63
2022/01/26 07:13:26;;;;;;;22.55;10.30;;;6.70;99.40;;;;;;5071774;28;20036;-63
2022/01/26 07:21:30;;;;;;;26.23;10.40;;;6.60;99.40;;;;;;5070818;28;20059;-63
2022/01/26 07:23:57;;;;;;;23.40;9.98;;;6.60;99.30;;;;;;5071587;28;20056;-63
2022/01/26 07:26:27;;;;;;;20.65;9.23;;;6.60;99.30;;;;;;5071868;28;20048;-63
2022/01/26 07:28:53;;;;;;;22.75;9.90;;;6.60;99.40;;;;;;5071529;28;20078;-63
2022/01/26 07:31:19;;;;;;;20.50;9.68;;;6.70;99.40;;;;;;5071991;28;20453;-63
2022/01/26 07:33:44;;;;;;;24.67;9.85;;;6.60;99.30;;;;;;5071342;28;20075;-63
2022/01/26 07:36:10;;;;;;;23.65;10.50;;;6.60;99.30;;;;;;5065774;28;20017;-62
2022/01/26 07:38:36;;;;;;;21.08;10.10;;;6.60;99.30;;;;;;5052312;28;20288;-63
2022/01/26 07:41:02;;;;;;;23.13;9.98;;;6.60;99.20;;;;;;5053774;28;20471;-63
2022/01/26 07:43:28;;;;;;;24.48;9.55;;;6.60;99.20;;;;;;5059011;28;20093;-63
2022/01/26 07:45:53;;;;;;;21.08;9.73;;;6.70;99.30;;;;;;5071242;28;20472;-62
2022/01/26 07:48:19;;;;;;;24.25;10.60;;;6.70;99.30;;;;;;5071338;28;20021;-62
2022/01/26 07:50:45;;;;;;;21.50;10.13;;;6.60;99.30;;;;;;5070877;28;20017;-63
2022/01/26 07:53:16;;;;;;;24.50;10.40;;;6.70;99.30;;;;;;5065040;28;20037;-63
2022/01/26 07:55:42;;;;;;;25.75;10.52;;;6.70;99.20;;;;;;5051177;28;20029;-62
2022/01/26 07:58:11;;;;;;;22.30;9.82;;;6.70;99.20;;;;;;5051209;28;20032;-62
2022/01/26 08:00:37;;;;;;;23.67;9.80;;;6.70;99.20;;;;;;5065198;28;20564;-63
2022/01/26 08:03:03;;;;;;;24.05;10.43;;;6.70;99.20;;;;;;5070678;28;20468;-64
2022/01/26 08:05:29;;;;;;;24.58;10.52;;;6.80;99.20;;;;;;5071388;28;20020;-63
2022/01/26 08:07:54;;;;;;;23.70;11.48;;;6.80;99.20;;;;;;5071229;28;20468;-63
2022/01/26 08:10:20;;;;;;;24.23;10.15;;;6.80;99.20;;;;;;5071125;28;20025;-63
2022/01/26 08:12:45;;;;;;;23.05;10.63;;;6.80;99.20;;;;;;5071003;28;20020;-63
2022/01/26 08:15:11;;;;;;;23.42;9.15;;;6.80;99.20;;;;;;5070760;28;20070;-63
2022/01/26 08:17:37;;;;;;;22.17;11.32;;;6.80;99.10;;;;;;5071022;28;20028;-63
2022/01/26 08:20:05;;;;;;;22.60;11.00;;;6.80;99.10;;;;;;5070794;28;20043;-63
2022/01/26 08:22:31;;;;;;;23.92;9.85;;;6.80;99.10;;;;;;5070805;28;20028;-63
2022/01/26 08:24:57;;;;;;;23.75;10.15;;;6.80;99.10;;;;;;5052796;28;20115;-63
2022/01/26 08:27:25;;;;;;;22.73;10.88;;;6.80;99.00;;;;;;5071068;28;20029;-63
2022/01/26 08:29:55;;;;;;;23.63;10.02;;;6.80;99.00;;;;;;5069776;28;20071;-63
2022/01/26 08:32:21;;;;;;;22.55;10.38;;;6.80;99.00;;;;;;5070711;28;20016;-63
2022/01/26 08:34:46;;;;;;;21.17;10.52;;;6.80;99.10;;;;;;5071004;28;20090;-62
2022/01/26 08:37:12;;;;;;;20.98;10.05;;;6.80;99.10;;;;;;5070713;28;20510;-63
2022/01/26 08:39:37;;;;;;;24.35;11.25;;;6.80;99.10;;;;;;5071059;28;20111;-63
2022/01/26 08:42:07;;;;;;;23.17;9.95;;;6.80;99.10;;;;;;5049139;28;20021;-62
2022/01/26 08:44:35;;;;;;;21.92;10.88;;;6.80;99.10;;;;;;5051029;28;20472;-62
2022/01/26 08:47:01;;;;;;;18.77;9.40;;;6.80;99.10;;;;;;5058751;28;20021;-62
2022/01/26 08:49:27;;;;;;;21.00;10.77;;;6.80;99.10;;;;;;5070282;28;20055;-62
2022/01/26 08:51:53;;;;;;;19.63;10.10;;;6.80;99.10;;;;;;5069751;28;20462;-62
2022/01/26 08:54:20;;;;;;;25.52;11.30;;;6.80;99.10;;;;;;5072826;28;20068;-61
2022/01/26 08:56:47;;;;;;;21.52;10.23;;;6.80;99.10;;;;;;5074796;28;20051;-63
2022/01/26 08:59:13;;;;;;;19.58;9.77;;;6.80;99.10;;;;;;5073021;28;20035;-62
2022/01/26 09:01:38;;;;;;;19.35;9.32;;;6.90;99.10;;;;;;5073916;28;20133;-63
2022/01/26 09:04:04;;;;;;;18.38;8.93;;;6.90;99.10;;;;;;5065823;28;20553;-63
2022/01/26 09:06:32;;;;;;;21.42;9.73;;;7.00;99.10;;;;;;5036490;28;20021;-62
2022/01/26 09:09:03;;;;;;;20.50;10.07;;;7.00;99.00;;;;;;5054411;28;20384;-62
2022/01/26 09:11:29;;;;;;;18.50;10.00;;;7.00;98.90;;;;;;5054369;28;20058;-62
2022/01/26 09:13:58;;;;;;;21.13;9.85;;;7.00;98.90;;;;;;5053949;28;20112;-62
2022/01/26 09:16:25;;;;;;;22.38;9.68;;;7.00;99.00;;;;;;5054427;28;20025;-62
2022/01/26 09:18:52;;;;;;;20.77;9.80;;;7.00;98.90;;;;;;5053929;28;20033;-63
2022/01/26 09:21:18;;;;;;;35.53;11.95;;;7.00;98.90;;;;;;5066676;28;20033;-63
2022/01/26 09:23:44;;;;;;;19.67;10.55;;;7.00;98.90;;;;;;5061036;28;20031;-63
2022/01/26 09:26:10;;;;;;;18.42;8.98;;;7.10;98.90;;;;;;5054176;28;20025;-63
2022/01/26 09:28:36;;;;;;;19.50;10.55;;;7.10;98.90;;;;;;5084039;28;20027;-63
2022/01/26 09:31:02;;;;;;;16.13;8.27;;;7.10;98.90;;;;;;5094187;28;20114;-63
2022/01/26 09:33:27;;;;;;;20.48;9.23;;;7.20;98.80;;;;;;5074755;28;20112;-62
2022/01/26 09:35:53;;;;;;;20.58;9.82;;;7.20;98.80;;;;;;5073753;28;20025;-62
2022/01/26 09:38:19;;;;;;;25.35;9.43;;;7.20;98.70;;;;;;5072908;28;20059;-61
2022/01/26 09:40:47;;;;;;;19.02;9.27;;;7.20;98.60;;;;;;5070338;28;20021;-62
2022/01/26 09:43:14;;;;;;;23.65;8.77;;;7.30;98.50;;;;;;5055188;28;20032;-63
2022/01/26 09:45:40;;;;;;;29.65;9.52;;;7.20;98.50;;;;;;5057589;28;20027;-62
2022/01/26 09:48:06;;;;;;;34.75;10.95;;;7.20;98.50;;;;;;5060791;28;20757;-62
2022/01/26 09:50:32;;;;;;;22.55;8.73;;;7.20;98.60;;;;;;5072429;28;20036;-63
2022/01/26 09:52:58;;;;;;;37.72;9.65;;;7.30;98.70;;;;;;5064146;28;20171;-63
2022/01/26 09:55:24;;;;;;;21.25;9.05;;;7.30;98.90;;;;;;5072964;28;20064;-63
2022/01/26 09:57:57;;;;;;;17.88;7.15;;;7.30;98.70;;;;;;5073098;28;20497;-65
2022/01/26 10:00:23;;;;;;;21.23;7.38;;;7.30;98.60;;;;;;5073130;28;20052;-64
2022/01/26 10:02:57;;;;;;;29.92;8.25;;;7.30;98.60;;;;;;5073180;28;20032;-63
2022/01/26 10:05:22;;;;;;;31.35;9.68;;;7.40;98.70;;;;;;5046202;28;20029;-64
2022/01/26 10:07:53;;;;;;;27.50;9.60;;;7.40;98.60;;;;;;5054453;28;20496;-65
2022/01/26 10:10:35;;;;;;;21.38;8.13;;;7.40;98.60;;;;;;5052614;28;20100;-64
2022/01/26 10:18:34;;;;;;;15.73;7.05;;;7.40;98.50;;;;;;5055450;28;20052;-64
2022/01/26 10:21:03;;;;;;;19.90;7.72;;;7.40;98.40;;;;;;5070907;28;20032;-64
2022/01/26 10:23:40;;;;;;;22.33;9.20;;;7.30;98.30;;;;;;5073186;28;20033;-64
2022/01/26 10:26:12;;;;;;;16.38;8.45;;;7.30;98.30;;;;;;5073237;28;20028;-64
2022/01/26 10:28:41;;;;;;;21.38;8.98;;;7.30;98.30;;;;;;5072140;28;20055;-64
2022/01/26 10:31:21;;;;;;;19.65;8.43;;;7.30;98.20;;;;;;5072540;28;20052;-64
2022/01/26 10:34:02;;;;;;;18.90;7.80;;;7.30;98.20;;;;;;5072369;28;20093;-64
2022/01/26 10:36:35;;;;;;;17.33;7.07;;;7.20;98.20;;;;;;5072826;28;20035;-64
2022/01/26 10:39:08;;;;;;;16.88;7.50;;;7.20;98.20;;;;;;5072614;28;20465;-64
2022/01/26 10:41:35;;;;;;;24.70;9.30;;;7.20;98.20;;;;;;5072664;28;20027;-65
2022/01/26 10:44:02;;;;;;;20.67;8.30;;;7.20;98.40;;;;;;5072531;28;20029;-64
2022/01/26 10:46:39;;;;;;;14.35;7.30;;;7.30;98.30;;;;;;5060604;28;20485;-64
2022/01/26 10:49:17;;;;;;;28.98;9.07;;;7.30;98.20;;;;;;5052321;28;20032;-63
2022/01/26 10:57:01;;;;;;;19.70;7.60;;;7.30;98.10;;;;;;5052377;28;20059;-65
2022/01/26 10:59:26;;;;;;;30.63;8.02;;;7.40;98.10;;;;;;5052396;28;20035;-64
2022/01/26 11:01:53;;;;;;;157.77;22.02;;;7.40;98.00;;;;;;5052223;28;20033;-65
2022/01/26 11:04:19;;;;;;;39.35;9.88;;;7.40;98.20;;;;;;5070885;28;20677;-64
2022/01/26 11:06:53;;;;;;;44.90;9.20;;;7.40;98.10;;;;;;5057074;28;20029;-65
2022/01/26 11:09:23;;;;;;;21.90;7.03;;;7.50;97.90;;;;;;5052364;28;20032;-64
2022/01/26 11:11:59;;;;;;;32.83;9.27;;;7.50;97.80;;;;;;5051987;28;20029;-65
2022/01/26 11:14:25;;;;;;;19.60;9.57;;;7.50;97.60;;;;;;5064644;28;20041;-65
2022/01/26 11:16:59;;;;;;;18.35;8.70;;;7.50;97.70;;;;;;5053944;28;20020;-65
2022/01/26 11:19:25;;;;;;;15.77;6.50;;;7.50;97.60;;;;;;5071443;28;20021;-65
2022/01/26 11:21:51;;;;;;;12.75;5.80;;;7.50;97.50;;;;;;5071885;28;20029;-64
2022/01/26 11:24:22;;;;;;;11.73;5.72;;;7.60;97.50;;;;;;5071902;28;20529;-65
2022/01/26 11:26:49;;;;;;;11.20;5.88;;;7.60;97.40;;;;;;5068547;28;20101;-65
2022/01/26 11:29:17;;;;;;;13.30;5.93;;;7.50;97.30;;;;;;5071553;28;20039;-64
2022/01/26 11:31:44;;;;;;;25.73;7.43;;;7.50;97.40;;;;;;5071203;28;20082;-63
2022/01/26 11:34:11;;;;;;;14.85;5.90;;;7.50;97.50;;;;;;5071682;28;20040;-64
2022/01/26 11:36:40;;;;;;;35.17;7.80;;;7.60;97.50;;;;;;5071026;28;20067;-64
2022/01/26 11:42:16;;;;;;;15.27;5.85;;;7.50;96.90;;;;;;5071344;28;20463;-64
2022/01/26 11:47:57;;;;;;;16.77;6.05;;;7.30;97.00;;;;;;4989354;28;20109;-65
2022/01/26 11:50:23;;;;;;;35.13;8.60;;;7.20;97.10;;;;;;5062108;28;20120;-64
2022/01/26 11:53:06;;;;;;;87.47;12.52;;;7.20;97.20;;;;;;5071130;28;20120;-64
2022/01/26 11:55:48;;;;;;;64.07;10.60;;;7.10;97.40;;;;;;5051332;28;20376;-64
2022/01/26 11:58:31;;;;;;;65.03;12.27;;;7.10;97.50;;;;;;5050277;28;20393;-64
2022/01/26 12:03:44;;;;;;;41.90;8.43;;;7.10;97.60;;;;;;5051338;28;20455;-64
2022/01/26 12:06:18;;;;;;;20.60;7.45;;;7.10;97.50;;;;;;5039564;28;20082;-64
2022/01/26 12:08:45;;;;;;;19.10;10.07;;;7.10;97.60;;;;;;5051259;28;20449;-64
2022/01/26 12:11:16;;;;;;;21.85;9.07;;;7.10;97.50;;;;;;5060194;28;20035;-64
2022/01/26 12:13:43;;;;;;;35.97;10.75;;;7.10;97.50;;;;;;5070910;28;20487;-64
2022/01/26 12:16:20;;;;;;;25.02;8.85;;;7.00;97.50;;;;;;5071094;28;20036;-64
2022/01/26 12:18:58;;;;;;;102.13;13.93;;;7.10;97.40;;;;;;5071274;28;20491;-64
2022/01/26 12:35:47;;;;;;;28.38;6.85;;;6.60;97.20;;;;;;5060787;28;20028;-65
2022/01/26 12:43:44;;;;;;;21.70;6.40;;;6.50;97.30;;;;;;5051360;28;20091;-65
2022/01/26 12:46:33;;;;;;;26.77;6.50;;;6.50;97.30;;;;;;5053695;28;20025;-64
2022/01/26 12:49:04;;;;;;;20.85;7.00;;;6.50;97.60;;;;;;5059151;28;20800;-65
2022/01/26 12:51:32;;;;;;;20.77;6.47;;;6.50;97.50;;;;;;5043629;28;20037;-65
2022/01/26 12:54:00;;;;;;;15.75;5.88;;;6.40;97.50;;;;;;5057671;28;20515;-64
2022/01/26 12:56:28;;;;;;;15.60;5.72;;;6.50;97.70;;;;;;5053596;28;20483;-64
2022/01/26 12:59:06;;;;;;;12.13;6.00;;;6.50;97.70;;;;;;5055723;28;20757;-64
2022/01/26 13:01:33;;;;;;;27.45;7.40;;;6.50;97.70;;;;;;5059390;28;20037;-64
2022/01/26 13:04:02;;;;;;;13.15;5.68;;;6.40;97.60;;;;;;5056309;28;20032;-63
2022/01/26 13:06:31;;;;;;;15.70;5.68;;;6.50;97.80;;;;;;5061148;28;20028;-63
2022/01/26 13:08:58;;;;;;;19.35;6.20;;;6.50;97.60;;;;;;5055338;28;20086;-63
2022/01/26 13:11:24;;;;;;;20.48;6.05;;;6.50;97.70;;;;;;5057898;28;20032;-63
2022/01/26 13:13:50;;;;;;;13.38;6.25;;;6.50;97.90;;;;;;5055354;28;20415;-63
2022/01/26 13:16:26;;;;;;;15.88;5.60;;;6.40;97.70;;;;;;5056320;28;20480;-64
2022/01/26 13:19:10;;;;;;;12.88;5.55;;;6.50;97.80;;;;;;5053740;28;20105;-64
2022/01/26 13:24:13;;;;;;;16.80;6.13;;;6.40;97.60;;;;;;5053151;28;20029;-64
2022/01/26 13:26:52;;;;;;;22.85;6.45;;;6.40;97.70;;;;;;5060187;28;20021;-63
2022/01/26 13:32:46;;;;;;;25.40;7.15;;;6.30;97.70;;;;;;5057599;28;20029;-64
2022/01/26 13:35:16;;;;;;;21.10;5.90;;;6.30;97.50;;;;;;5057837;28;20037;-64
2022/01/26 13:38:03;;;;;;;24.35;7.53;;;6.30;97.60;;;;;;5059931;28;20028;-64
2022/01/26 13:40:46;;;;;;;35.80;10.90;;;6.30;97.60;;;;;;5058276;28;20021;-64
2022/01/26 13:49:19;;;;;;;23.88;10.20;;;6.20;97.60;;;;;;5049930;28;20041;-65
2022/01/26 13:57:09;;;;;;;22.75;10.80;;;6.30;97.50;;;;;;5063687;28;20107;-65
2022/01/26 13:59:46;;;;;;;24.17;9.85;;;6.30;97.50;;;;;;5058288;28;20112;-65
2022/01/26 14:02:12;;;;;;;28.85;9.85;;;6.30;97.50;;;;;;5061523;28;20032;-65
2022/01/26 14:04:39;;;;;;;26.33;9.30;;;6.30;97.50;;;;;;5061671;28;20115;-65
2022/01/26 14:07:05;;;;;;;22.15;8.27;;;6.30;97.40;;;;;;5062617;28;20033;-65
2022/01/26 14:09:31;;;;;;;34.67;10.05;;;6.30;97.30;;;;;;5055747;28;20028;-65
2022/01/26 14:11:59;;;;;;;35.90;10.35;;;6.30;97.40;;;;;;5060934;28;20477;-65
2022/01/26 14:14:31;;;;;;;25.67;10.60;;;6.40;97.40;;;;;;5061753;28;20403;-65
2022/01/26 14:16:59;;;;;;;34.50;9.95;;;6.40;97.30;;;;;;5063531;28;20108;-65
2022/01/26 14:19:55;;;;;;;28.02;10.02;;;6.50;97.30;;;;;;5060674;28;20111;-65
2022/01/26 14:25:16;;;;;;;25.73;9.98;;;6.40;97.40;;;;;;5056829;28;19944;-65
2022/01/26 14:27:47;;;;;;;22.48;9.05;;;6.40;97.00;;;;;;5059303;28;20017;-64
2022/01/26 14:30:40;;;;;;;25.13;9.77;;;6.40;97.00;;;;;;5045887;28;20031;-64
2022/01/26 14:36:08;;;;;;;23.35;9.85;;;6.40;96.90;;;;;;5063328;28;20032;-64
2022/01/26 14:52:27;;;;;;;25.92;9.85;;;6.20;96.50;;;;;;5056671;28;20032;-65
2022/01/26 14:55:00;;;;;;;66.75;14.60;;;6.20;96.50;;;;;;5057498;28;20093;-65
2022/01/26 15:00:38;;;;;;;60.85;13.95;;;6.30;96.60;;;;;;5062182;28;20486;-63
2022/01/26 15:12:10;;;;;;;33.00;13.70;;;6.30;96.70;;;;;;5062312;28;20056;-64
2022/01/26 15:20:38;;;;;;;33.38;14.63;;;6.30;96.60;;;;;;5054857;28;20028;-64
2022/01/26 15:35:52;;;;;;;32.97;12.83;;;6.20;96.50;;;;;;5054389;28;20037;-62
2022/01/26 15:41:21;;;;;;;27.60;11.20;;;6.20;96.60;;;;;;5066243;28;20078;-63
2022/01/26 16:07:39;;;;;;;31.67;13.85;;;6.10;96.60;;;;;;5057938;28;20025;-64
2022/01/26 17:26:02;;;;;;;56.40;22.75;;;5.80;97.40;;;;;;5057588;28;20032;-62
2022/01/26 18:13:07;;;;;;;66.13;26.92;;;5.80;97.70;;;;;;5065352;28;20028;-62
2022/01/26 18:31:43;;;;;;;73.05;29.58;;;5.80;97.70;;;;;;5053711;28;20109;-62
2022/01/26 18:50:04;;;;;;;;;;;5.90;97.90;;;;;;5059996;28;20063;-62
2022/01/26 18:52:30;;;;;;;66.55;26.80;;;5.90;97.80;;;;;;5060869;28;19955;-62
2022/01/26 18:54:55;;;;;;;67.32;26.55;;;5.90;97.80;;;;;;5063736;28;20031;-62
2022/01/26 18:57:21;;;;;;;73.53;30.80;;;5.90;97.80;;;;;;5040672;28;20052;-63
2022/01/26 18:59:47;;;;;;;72.32;29.25;;;5.90;97.80;;;;;;5056269;28;20031;-63